Eviapetrol I — SY5401 — position and weather

sailwx.info

Track history (hours):
 
Tides and Currents Weather Stations Pressure Air Temp Water Temp Dewpoint Dewpoint Depression Visibility Wind Speed Wind Dir Waves Ship Positions

Eviapetrol I

Last reported at 2016-Feb-13 02:31 UTC. Time now 2016-Feb-13 02:37 UTC.
Position N 40°30' E 025°30'.

Length 75 m; draft 5 m.

Type: Tanker. MMSI: 240285000.

Date/timePositionNaut miles runAvg speedWind from/ knotsBaromVisibWave heightAir tempDewpointWater temp
2016-Feb-13 02:31N 40°30' E 025°30'0 0.0
2016-Feb-13 01:31N 40°30' E 025°30'0 0.1
2016-Feb-13 00:31N 40°30' E 025°30'18 9.3
2016-Feb-12 22:33N 40°16' E 025°14'1211.1
2016-Feb-12 21:31N 40°07' E 025°06'1010.7
2016-Feb-12 20:33N 39°57' E 024°60'13710.2
2016-Feb-12 07:05N 37°45' E 024°17'15 9.6
2016-Feb-12 05:33N 37°37' E 024°01'10 9.9
2016-Feb-12 04:33N 37°39' E 023°48'9 8.6
2016-Feb-12 03:33N 37°44' E 023°40'9 9.1
2016-Feb-12 02:33N 37°49' E 023°30'9 9.0
2016-Feb-12 01:33N 37°56' E 023°23'8 8.2
2016-Feb-12 00:33N 38°01' E 023°32'3 3.0
2016-Feb-11 23:31N 38°02' E 023°36'0 0.0
2016-Feb-11 22:31N 38°02' E 023°36'0 0.0
2016-Feb-11 21:28N 38°02' E 023°36'0 0.0
2016-Feb-11 20:31N 38°02' E 023°36'0 0.0
2016-Feb-11 19:19N 38°02' E 023°36'0 0.0
2016-Feb-11 18:25N 38°02' E 023°36'0 0.0
2016-Feb-11 17:31N 38°02' E 023°36'0 0.0
2016-Feb-11 16:31N 38°02' E 023°36'0 0.0
2016-Feb-11 15:31N 38°02' E 023°36'0 0.0
2016-Feb-11 14:13N 38°02' E 023°36'0 0.0
2016-Feb-11 13:31N 38°02' E 023°36'0 0.0
2016-Feb-11 12:22N 38°02' E 023°36'0 0.0
2016-Feb-11 11:31N 38°02' E 023°36'0 0.0
2016-Feb-11 10:31N 38°02' E 023°36'0 0.0
2016-Feb-11 09:28N 38°02' E 023°36'0 0.0
2016-Feb-11 08:33N 38°02' E 023°36'1 1.1
2016-Feb-11 07:33N 38°01' E 023°34'2 1.9
2016-Feb-11 06:31N 38°01' E 023°32'0 0.0
2016-Feb-11 05:31N 38°01' E 023°32'0 0.0
2016-Feb-11 04:31N 38°01' E 023°32'0 0.0
2016-Feb-11 03:31N 38°01' E 023°32'0 0.0
2016-Feb-11 02:31N 38°01' E 023°32'0 0.0
2016-Feb-11 01:31N 38°01' E 023°32'0 0.0
2016-Feb-11 00:28N 38°01' E 023°32'0 0.1
2016-Feb-10 23:31N 38°02' E 023°32'0 0.0
2016-Feb-10 22:28N 38°02' E 023°32'0 0.0
2016-Feb-10 21:31N 38°02' E 023°32'0 0.0
2016-Feb-10 20:31N 38°02' E 023°32'0 0.0
2016-Feb-10 19:31N 38°02' E 023°32'0 0.0
2016-Feb-10 18:28N 38°02' E 023°32'0 0.0
2016-Feb-10 17:28N 38°02' E 023°32'0 0.0
2016-Feb-10 16:22N 38°02' E 023°32'0 0.0
2016-Feb-10 15:31N 38°02' E 023°32'0 0.0
2016-Feb-10 14:28N 38°02' E 023°32'0 0.0
2016-Feb-10 13:28N 38°02' E 023°32'0 0.1
2016-Feb-10 12:25N 38°01' E 023°32'0 0.0
2016-Feb-10 11:22N 38°01' E 023°32'0 0.0
2016-Feb-10 10:16N 38°01' E 023°32'0 0.0
2016-Feb-10 09:31N 38°01' E 023°32'6 5.8
2016-Feb-10 08:34N 37°57' E 023°36'9 9.0
2016-Feb-10 07:33N 37°49' E 023°41'1110.6
2016-Feb-10 06:33N 37°40' E 023°48'1110.9
2016-Feb-10 05:32N 37°35' E 024°01'3410.6
2016-Feb-10 02:18N 37°32' E 024°44'910.7
2016-Feb-10 01:29N 37°32' E 024°55'1111.7
2016-Feb-10 00:33N 37°30' E 025°08'10 9.6
2016-Feb-09 23:33N 37°32' E 025°20'1110.7
2016-Feb-09 22:34N 37°34' E 025°33'1110.6
2016-Feb-09 21:33N 37°38' E 025°46'53 1.1
2016-Feb-07 22:25N 36°44' E 025°48'8 9.6
2016-Feb-07 21:33N 36°46' E 025°38'1010.4
2016-Feb-07 20:33N 36°48' E 025°25'1110.0
2016-Feb-07 19:29N 36°56' E 025°15'71 2.0
2016-Feb-06 08:16N 37°38' E 024°04'4 0.4
2016-Feb-05 22:11N 37°39' E 023°59'0 0.0
2016-Feb-05 21:27N 37°39' E 023°59'0 0.0
2016-Feb-05 20:33N 37°39' E 023°59'0 0.0
2016-Feb-05 19:31N 37°39' E 023°59'2 1.5
2016-Feb-05 18:33N 37°38' E 023°58'1010.2
2016-Feb-05 17:33N 37°39' E 023°45'1010.0
2016-Feb-05 16:34N 37°47' E 023°38'9 8.9
2016-Feb-05 15:33N 37°56' E 023°34'0 0.1
2016-Feb-05 14:33N 37°56' E 023°34'0 0.1
2016-Feb-05 13:33N 37°56' E 023°33'5 4.6
2016-Feb-05 12:33N 38°00' E 023°33'3 2.7
2016-Feb-05 11:32N 38°02' E 023°36'0 0.0
2016-Feb-05 10:32N 38°02' E 023°36'0 0.0
2016-Feb-05 09:32N 38°02' E 023°36'0 0.0
2016-Feb-05 08:32N 38°02' E 023°36'0 0.0
2016-Feb-05 07:32N 38°02' E 023°36'0 0.0
2016-Feb-05 06:29N 38°02' E 023°36'0 0.0
2016-Feb-05 05:32N 38°02' E 023°36'0 0.0
2016-Feb-05 04:32N 38°02' E 023°36'0 0.0
2016-Feb-05 03:29N 38°02' E 023°36'0 0.0
2016-Feb-05 02:32N 38°02' E 023°36'0 0.0
2016-Feb-05 01:32N 38°02' E 023°36'0 0.0
2016-Feb-05 00:32N 38°02' E 023°36'0 0.0
2016-Feb-04 23:32N 38°02' E 023°36'0 0.0
2016-Feb-04 22:29N 38°02' E 023°36'0 0.0
2016-Feb-04 21:29N 38°02' E 023°36'0 0.0
2016-Feb-04 20:29N 38°02' E 023°36'0 0.0
2016-Feb-04 19:32N 38°02' E 023°36'0 0.0
2016-Feb-04 18:32N 38°02' E 023°36'0 0.0
2016-Feb-04 17:32N 38°02' E 023°36'0 0.0
2016-Feb-04 16:32N 38°02' E 023°36'0 0.0
2016-Feb-04 15:32N 38°02' E 023°36'0 0.0
2016-Feb-04 14:32N 38°02' E 023°36'0 0.0
2016-Feb-04 13:32N 38°02' E 023°36'0 0.0
2016-Feb-04 12:32N 38°02' E 023°36'0 0.0
2016-Feb-04 11:32N 38°02' E 023°36'0 0.0
2016-Feb-04 10:32N 38°02' E 023°36'0 0.0
2016-Feb-04 09:32N 38°02' E 023°36'0 0.0
2016-Feb-04 08:29N 38°02' E 023°36'0 0.0
2016-Feb-04 07:32N 38°02' E 023°36'0 0.0
2016-Feb-04 06:32N 38°02' E 023°36'0 0.0
2016-Feb-04 05:32N 38°02' E 023°36'0 0.0
2016-Feb-04 04:32N 38°02' E 023°36'0 0.0
2016-Feb-04 03:32N 38°02' E 023°36'0 0.0
2016-Feb-04 02:29N 38°02' E 023°36'0 0.1
2016-Feb-04 01:33N 38°02' E 023°36'0 0.5
2016-Feb-04 00:33N 38°02' E 023°35'0 0.0
2016-Feb-03 23:33N 38°02' E 023°35'0 0.0
2016-Feb-03 22:33N 38°02' E 023°35'3 2.9
2016-Feb-03 21:33N 38°02' E 023°31'0 0.0
2016-Feb-03 20:33N 38°02' E 023°31'0 0.1
2016-Feb-03 19:33N 38°02' E 023°31'0 0.0
2016-Feb-03 18:33N 38°02' E 023°31'0 0.1
2016-Feb-03 17:33N 38°02' E 023°31'0 0.0
2016-Feb-03 16:33N 38°02' E 023°31'0 0.0
2016-Feb-03 15:30N 38°02' E 023°31'0 0.0
2016-Feb-03 14:33N 38°02' E 023°31'0 0.0
2016-Feb-03 13:33N 38°02' E 023°31'0 0.0
2016-Feb-03 12:33N 38°02' E 023°31'0 0.0
2016-Feb-03 11:33N 38°02' E 023°31'0 0.0
2016-Feb-03 10:30N 38°02' E 023°31'0 0.0
2016-Feb-03 09:33N 38°02' E 023°31'0 0.0
2016-Feb-03 08:33N 38°02' E 023°31'0 0.0
2016-Feb-03 07:33N 38°02' E 023°31'0 0.0
2016-Feb-03 06:33N 38°02' E 023°31'0 0.0
2016-Feb-03 05:33N 38°02' E 023°31'0 0.0
2016-Feb-03 04:30N 38°02' E 023°31'0 0.0
2016-Feb-03 03:33N 38°02' E 023°31'0 0.0
2016-Feb-03 02:33N 38°02' E 023°31'  
Track history (hours):
 
Tides and Currents Weather Stations Pressure Air Temp Water Temp Dewpoint Dewpoint Depression Visibility Wind Speed Wind Dir Waves Ship Positions

Eviapetrol I

Last reported at 2016-Feb-13 02:31 UTC. Time now 2016-Feb-13 02:37 UTC.
Position N 40°30' E 025°30'.

Length 75 m; draft 5 m.

Type: Tanker. MMSI: 240285000.

Date/timePositionNaut miles runAvg speedWind from/ knotsBaromVisibWave heightAir tempDewpointWater temp
2016-Feb-13 02:31N 40°30' E 025°30'0 0.0
2016-Feb-13 01:31N 40°30' E 025°30'0 0.1
2016-Feb-13 00:31N 40°30' E 025°30'18 9.3
2016-Feb-12 22:33N 40°16' E 025°14'1211.1
2016-Feb-12 21:31N 40°07' E 025°06'1010.7
2016-Feb-12 20:33N 39°57' E 024°60'13710.2
2016-Feb-12 07:05N 37°45' E 024°17'15 9.6
2016-Feb-12 05:33N 37°37' E 024°01'10 9.9
2016-Feb-12 04:33N 37°39' E 023°48'9 8.6
2016-Feb-12 03:33N 37°44' E 023°40'9 9.1
2016-Feb-12 02:33N 37°49' E 023°30'9 9.0
2016-Feb-12 01:33N 37°56' E 023°23'8 8.2
2016-Feb-12 00:33N 38°01' E 023°32'3 3.0
2016-Feb-11 23:31N 38°02' E 023°36'0 0.0
2016-Feb-11 22:31N 38°02' E 023°36'0 0.0
2016-Feb-11 21:28N 38°02' E 023°36'0 0.0
2016-Feb-11 20:31N 38°02' E 023°36'0 0.0
2016-Feb-11 19:19N 38°02' E 023°36'0 0.0
2016-Feb-11 18:25N 38°02' E 023°36'0 0.0
2016-Feb-11 17:31N 38°02' E 023°36'0 0.0
2016-Feb-11 16:31N 38°02' E 023°36'0 0.0
2016-Feb-11 15:31N 38°02' E 023°36'0 0.0
2016-Feb-11 14:13N 38°02' E 023°36'0 0.0
2016-Feb-11 13:31N 38°02' E 023°36'0 0.0
2016-Feb-11 12:22N 38°02' E 023°36'0 0.0
2016-Feb-11 11:31N 38°02' E 023°36'0 0.0
2016-Feb-11 10:31N 38°02' E 023°36'0 0.0
2016-Feb-11 09:28N 38°02' E 023°36'0 0.0
2016-Feb-11 08:33N 38°02' E 023°36'1 1.1
2016-Feb-11 07:33N 38°01' E 023°34'2 1.9
2016-Feb-11 06:31N 38°01' E 023°32'0 0.0
2016-Feb-11 05:31N 38°01' E 023°32'0 0.0
2016-Feb-11 04:31N 38°01' E 023°32'0 0.0
2016-Feb-11 03:31N 38°01' E 023°32'0 0.0
2016-Feb-11 02:31N 38°01' E 023°32'0 0.0
2016-Feb-11 01:31N 38°01' E 023°32'0 0.0
2016-Feb-11 00:28N 38°01' E 023°32'0 0.1
2016-Feb-10 23:31N 38°02' E 023°32'0 0.0
2016-Feb-10 22:28N 38°02' E 023°32'0 0.0
2016-Feb-10 21:31N 38°02' E 023°32'0 0.0
2016-Feb-10 20:31N 38°02' E 023°32'0 0.0
2016-Feb-10 19:31N 38°02' E 023°32'0 0.0
2016-Feb-10 18:28N 38°02' E 023°32'0 0.0
2016-Feb-10 17:28N 38°02' E 023°32'0 0.0
2016-Feb-10 16:22N 38°02' E 023°32'0 0.0
2016-Feb-10 15:31N 38°02' E 023°32'0 0.0
2016-Feb-10 14:28N 38°02' E 023°32'0 0.0
2016-Feb-10 13:28N 38°02' E 023°32'0 0.1
2016-Feb-10 12:25N 38°01' E 023°32'0 0.0
2016-Feb-10 11:22N 38°01' E 023°32'0 0.0
2016-Feb-10 10:16N 38°01' E 023°32'0 0.0
2016-Feb-10 09:31N 38°01' E 023°32'6 5.8
2016-Feb-10 08:34N 37°57' E 023°36'9 9.0
2016-Feb-10 07:33N 37°49' E 023°41'1110.6
2016-Feb-10 06:33N 37°40' E 023°48'1110.9
2016-Feb-10 05:32N 37°35' E 024°01'3410.6
2016-Feb-10 02:18N 37°32' E 024°44'910.7
2016-Feb-10 01:29N 37°32' E 024°55'1111.7
2016-Feb-10 00:33N 37°30' E 025°08'10 9.6
2016-Feb-09 23:33N 37°32' E 025°20'1110.7
2016-Feb-09 22:34N 37°34' E 025°33'1110.6
2016-Feb-09 21:33N 37°38' E 025°46'53 1.1
2016-Feb-07 22:25N 36°44' E 025°48'8 9.6
2016-Feb-07 21:33N 36°46' E 025°38'1010.4
2016-Feb-07 20:33N 36°48' E 025°25'1110.0
2016-Feb-07 19:29N 36°56' E 025°15'71 2.0
2016-Feb-06 08:16N 37°38' E 024°04'4 0.4
2016-Feb-05 22:11N 37°39' E 023°59'0 0.0
2016-Feb-05 21:27N 37°39' E 023°59'0 0.0
2016-Feb-05 20:33N 37°39' E 023°59'0 0.0
2016-Feb-05 19:31N 37°39' E 023°59'2 1.5
2016-Feb-05 18:33N 37°38' E 023°58'1010.2
2016-Feb-05 17:33N 37°39' E 023°45'1010.0
2016-Feb-05 16:34N 37°47' E 023°38'9 8.9
2016-Feb-05 15:33N 37°56' E 023°34'0 0.1
2016-Feb-05 14:33N 37°56' E 023°34'0 0.1
2016-Feb-05 13:33N 37°56' E 023°33'5 4.6
2016-Feb-05 12:33N 38°00' E 023°33'3 2.7
2016-Feb-05 11:32N 38°02' E 023°36'0 0.0
2016-Feb-05 10:32N 38°02' E 023°36'0 0.0
2016-Feb-05 09:32N 38°02' E 023°36'0 0.0
2016-Feb-05 08:32N 38°02' E 023°36'0 0.0
2016-Feb-05 07:32N 38°02' E 023°36'0 0.0
2016-Feb-05 06:29N 38°02' E 023°36'0 0.0
2016-Feb-05 05:32N 38°02' E 023°36'0 0.0
2016-Feb-05 04:32N 38°02' E 023°36'0 0.0
2016-Feb-05 03:29N 38°02' E 023°36'0 0.0
2016-Feb-05 02:32N 38°02' E 023°36'0 0.0
2016-Feb-05 01:32N 38°02' E 023°36'0 0.0
2016-Feb-05 00:32N 38°02' E 023°36'0 0.0
2016-Feb-04 23:32N 38°02' E 023°36'0 0.0
2016-Feb-04 22:29N 38°02' E 023°36'0 0.0
2016-Feb-04 21:29N 38°02' E 023°36'0 0.0
2016-Feb-04 20:29N 38°02' E 023°36'0 0.0
2016-Feb-04 19:32N 38°02' E 023°36'0 0.0
2016-Feb-04 18:32N 38°02' E 023°36'0 0.0
2016-Feb-04 17:32N 38°02' E 023°36'0 0.0
2016-Feb-04 16:32N 38°02' E 023°36'0 0.0
2016-Feb-04 15:32N 38°02' E 023°36'0 0.0
2016-Feb-04 14:32N 38°02' E 023°36'0 0.0
2016-Feb-04 13:32N 38°02' E 023°36'0 0.0
2016-Feb-04 12:32N 38°02' E 023°36'0 0.0
2016-Feb-04 11:32N 38°02' E 023°36'0 0.0
2016-Feb-04 10:32N 38°02' E 023°36'0 0.0
2016-Feb-04 09:32N 38°02' E 023°36'0 0.0
2016-Feb-04 08:29N 38°02' E 023°36'0 0.0
2016-Feb-04 07:32N 38°02' E 023°36'0 0.0
2016-Feb-04 06:32N 38°02' E 023°36'0 0.0
2016-Feb-04 05:32N 38°02' E 023°36'0 0.0
2016-Feb-04 04:32N 38°02' E 023°36'0 0.0
2016-Feb-04 03:32N 38°02' E 023°36'0 0.0
2016-Feb-04 02:29N 38°02' E 023°36'0 0.1
2016-Feb-04 01:33N 38°02' E 023°36'0 0.5
2016-Feb-04 00:33N 38°02' E 023°35'0 0.0
2016-Feb-03 23:33N 38°02' E 023°35'0 0.0
2016-Feb-03 22:33N 38°02' E 023°35'3 2.9
2016-Feb-03 21:33N 38°02' E 023°31'0 0.0
2016-Feb-03 20:33N 38°02' E 023°31'0 0.1
2016-Feb-03 19:33N 38°02' E 023°31'0 0.0
2016-Feb-03 18:33N 38°02' E 023°31'0 0.1
2016-Feb-03 17:33N 38°02' E 023°31'0 0.0
2016-Feb-03 16:33N 38°02' E 023°31'0 0.0
2016-Feb-03 15:30N 38°02' E 023°31'0 0.0
2016-Feb-03 14:33N 38°02' E 023°31'0 0.0
2016-Feb-03 13:33N 38°02' E 023°31'0 0.0
2016-Feb-03 12:33N 38°02' E 023°31'0 0.0
2016-Feb-03 11:33N 38°02' E 023°31'0 0.0
2016-Feb-03 10:30N 38°02' E 023°31'0 0.0
2016-Feb-03 09:33N 38°02' E 023°31'0 0.0
2016-Feb-03 08:33N 38°02' E 023°31'0 0.0
2016-Feb-03 07:33N 38°02' E 023°31'0 0.0
2016-Feb-03 06:33N 38°02' E 023°31'0 0.0
2016-Feb-03 05:33N 38°02' E 023°31'0 0.0
2016-Feb-03 04:30N 38°02' E 023°31'0 0.0
2016-Feb-03 03:33N 38°02' E 023°31'0 0.0
2016-Feb-03 02:33N 38°02' E 023°31'  

Dump ship's entire track history